x

South Santa Rosa Is. Ca (46069) Wave Buoy

9:50 - Mon 29th Jun 2015 All times are PDT. -7 hours from GMT.

  • Sig Wave height 5.9ft
  • Peak Period 6s
  • Average Period 5s
  • Wind
    22mph, 27mph gusts
  • Sea Temp 60°f
  • Luft Temp 59°f
  • Sea Pressure 1011.9mb
  • South Santa Rosa Is. Ca
  • South Santa Rosa Is. Ca

More Historic Weather Station data

Upgrade to MSW Pro to gain access to the past 30 days of data for over 8000 Wavebouys and Weather Stations around the globe.

Join Pro

Comparision Forecast

View Surf forecast
   
Mo 06/29 9:50 6ft 6s 5s 22 27 mph 1011.9mb 60f 59f
8:50 6ft 6s 5s 25 29 mph 1010.8mb 60f 60f
7:50 6ft 6s 5s 22 29 mph 1010.8mb 60f 60f
6:50 6ft 6s 5s 22 27 mph 1011mb 60f 59f
5:50 5.5ft 6s 5s 22 27 mph 1011.3mb 61f 59f
4:50 6ft 7s 5s 22 27 mph 1011.7mb 61f 59f
3:50 6ft 7s 5s 22 27 mph 1012.1mb 61f 59f
2:50 6ft 7s 5s 25 29 mph 1012.4mb 61f 59f
1:50 6ft 6s 5s 25 29 mph 1012.6mb 61f 59f
12:50 6ft 7s 5s 25 29 mph 1012.9mb 61f 59f
11:50 6.5ft 7s 5s 25 29 mph 1013.1mb 61f 59f
10:50 7ft 6s 5s 25 29 mph 1013.1mb 61f 58f
9:50 7ft 6s 5s 25 29 mph 1012.7mb 61f 58f
8:50 7ft 7s 5s 25 29 mph 1013mb 61f 58f
7:50 7ft 6s 5s 25 29 mph 1012.4mb 61f 58f
6:50 8ft 7s 5s 29 31 mph 1011.8mb 61f 58f
5:50 7ft 7s 5s 29 34 mph 1011.6mb 61f 58f
4:50 7ft 7s 5s 27 34 mph 1011.3mb 61f 59f
3:50 7.5ft 6s 5s 29 36 mph 1011.2mb 61f 59f
2:50 7ft 6s 5s 29 34 mph 1011.7mb 61f 59f
1:50 6ft 6s 5s 27 34 mph 1011.7mb 61f 60f
12:50 6ft 6s 5s 27 31 mph 1011.8mb 61f 61f
So 06/28 11:50 5.5ft 6s 5s 27 31 mph 1012.1mb 62f 61f
10:50 6ft 6s 5s 25 31 mph 1012.4mb 62f 61f
9:50 6ft 6s 5s 25 31 mph 1012.3mb 62f 62f
8:50 6ft 6s 5s 27 31 mph 1011.9mb 62f 61f
7:50 6ft 6s 5s 29 34 mph 1011.9mb 63f 61f
6:50 6ft 6s 5s 27 31 mph 1012mb 63f 61f
5:50 6ft 5s 5s 27 31 mph 1012.2mb 63f 61f
4:50 6ft 6s 5s 25 31 mph 1012.6mb 63f 62f
3:50 6ft 6s 5s 25 31 mph 1013.3mb 63f 62f
2:50 6ft 15s 6s 25 29 mph 1013.6mb 63f 62f
1:50 6ft 5s 5s 25 31 mph 1014mb 63f 61f
12:50 6ft 6s 5s 22 27 mph 1014.4mb 63f 61f
11:50 6ft 6s 5s 22 27 mph 1014.8mb 63f 61f
10:50 6.5ft 6s 5s 25 31 mph 1014mb 62f 60f
9:50 6ft 6s 5s 25 29 mph 1014.2mb 62f 60f
8:50 6ft 6s 5s 27 31 mph 1014.2mb 62f 60f
7:50 6ft 5s 5s 25 29 mph 1013.8mb 63f 60f
6:50 6ft 9s 5s 25 31 mph 1013.5mb 63f 60f
5:50 6ft 6s 5s 25 29 mph 1013.2mb 63f 60f
4:50 5.5ft 5s 5s 25 31 mph 1012.6mb 63f 61f
3:50 5.5ft 9s 5s 25 29 mph 1012.5mb 63f 61f
2:50 6ft 9s 5s 25 29 mph 1012.6mb 63f 61f
1:50 5ft 9s 5s 25 29 mph 1012.8mb 63f 61f
12:50 5ft 9s 5s 22 25 mph 1013.3mb 63f 61f
Sa 06/27 11:50 5ft 9s 6s 20 22 mph 1013.3mb 63f 61f
10:50 5ft 9s 5s 22 27 mph 1013.4mb 62f 61f
9:50 5ft 9s 5s 20 25 mph 1013.4mb 62f 61f
8:50 5.5ft 10s 6s 18 20 mph 1013.5mb 62f 61f
7:50 5ft 8s 5s 18 22 mph 1014.1mb 62f 61f
6:50 5ft 9s 5s 22 27 mph 1013.5mb 63f 61f
5:50 4.5ft 8s 5s 20 25 mph 1013.9mb 62f 60f
4:50 4.5ft 8s 5s 20 25 mph 1014.2mb 62f 60f
3:50 4.5ft 10s 6s 18 22 mph 1014.8mb 62f 60f
2:50 4.5ft 10s 6s 18 20 mph 1015.4mb 62f 60f
1:50 4.5ft 8s 6s 16 18 mph 1016.3mb 62f 60f
12:50 4.5ft 10s 6s 13 16 mph 1016.9mb 62f 60f
11:50 4.5ft 9s 7s 13 16 mph 1017.2mb 62f 59f
10:50 5ft 9s 7s 13
mph
1017.1mb 62f 59f
9:50 4.5ft 8s 6s 11 13 mph 1017mb 62f 59f
8:50 4.5ft 8s 6s 16 18 mph 1016mb 62f 60f
7:50 5ft 8s 6s 16 18 mph 1015.6mb 62f 60f
6:50 5ft 9s 6s 13 16 mph 1015.4mb 62f 60f
5:50 4.5ft 8s 6s 13 16 mph 1014.7mb 62f 59f
4:50 4.5ft 9s 6s 9 11 mph 1014.6mb 62f 59f
3:50 4.5ft 9s 6s 16
mph
1013.8mb 62f 60f
2:50 4.5ft 9s 7s 13
mph
1014.2mb 61f 60f
1:50 4.5ft 8s 6s 13 18 mph 1014.1mb 61f 60f
12:50 4.5ft 9s 6s 16 20 mph 1014.3mb 61f 60f
Fr 06/26 11:50 4.5ft 8s 6s 13 18 mph 1014.6mb 61f 61f
10:50 4ft 8s 6s 13 18 mph 1014.5mb 61f 61f
9:50 4.5ft 8s 6s 13 18 mph 1014.6mb 62f 61f
8:50 4ft 8s 7s 13 18 mph 1014.4mb 62f 61f
7:50 4ft 8s 7s 9
mph
1014.4mb 61f 62f
6:50 4ft 8s 7s 11 13 mph 1013.9mb 62f 62f
5:50 4.5ft 8s 7s 9 11 mph 1014mb 62f 62f
4:50 4ft 8s 7s 9 11 mph 1014.1mb 62f 62f
3:50 4.5ft 8s 7s 9 11 mph 1014.6mb 62f 62f
2:50 4ft 8s 6s 9 11 mph 1014.9mb 62f 62f
1:50 4ft 8s 6s 2 4 mph 1015.5mb 62f 61f
12:50 4ft 8s 6s 2
mph
1015.7mb 62f 61f
11:50 4ft 8s 6s 4 7 mph 1015.6mb 61f 60f
10:50 3.5ft 14s 6s 4
mph
1015.3mb 61f 59f
9:50 4ft 8s 7s  -  2 mph 1015.4mb 60f 60f
8:50 4ft 8s 7s 2 4 mph 1015.2mb 60f 59f
7:50 3.5ft 8s 7s 4 9 mph 1014.4mb 60f 59f
6:50 3.5ft 8s 7s 7 9 mph 1013.9mb 60f 59f
5:50 4ft 8s 7s 4 9 mph 1013.6mb 60f 58f